Greenville Airport (GRE)
Greenville, IL
Field Elevation: 540
Lat: 38°50.00N  Long: 89°22.00W
CTAF/Unicom Freq: 123.0500
   
     For Weather-by-Phone, call (618) 664-1939
Weather Advisories
2021-05-07   16:23 Z
Altimeter 30.11" Hg
Wind 260° @ 13 KT
Gusts 19 KT
Visibility 10 SM
Temperature 18° C (64° F)
Dewpoint 6° C (43° F)
Relative Humidity 45%
Density Altitude --
Condensation Altitude 6,700 feet
Wind and Runways
Indicated Runway = 27
Headwind = 13 kt
Crosswind = 2 kt
History
 
 
 
More Info
 
NOAA Forecast
 
Airport IQ 5010
(FLV) Sherman Airfield
(VLA) Vandalia
 
about Belfort Instrument
 
FAA Disclaimer: The data displayed is for advisory purposes only and is not to be used for flight planning or operations. For official data, please call (618) 664-1939 to hear the current automated AWOS voice message.
  METAR GRE 071623Z AUTO 26013G19KT 10 SM 18/06 A3011